Time;durP1;ratioP1;P1;durP2;ratioP2;P2;SDS_P1;SDS_P2;PMS_P1;PMS_P2;Temp;Humidity;BMP_temperature;BMP_pressure;BME280_temperature;BME280_humidity;BME280_pressure;Samples;Min_cycle;Max_cycle;Signal;HPM_P1;HPM_P2
2023/05/10 00:00:18;;;;;;;2.87;1.85;;;;;;;9.80;37.90;101164.30;1723946;83;21074;-56
2023/05/10 00:02:48;;;;;;;4.10;1.85;;;;;;;9.81;37.98;101168.23;1723705;83;21075;-56
2023/05/10 00:05:19;;;;;;;3.33;1.87;;;;;;;9.83;37.98;101170.28;1723817;83;21034;-56
2023/05/10 00:07:48;;;;;;;3.45;1.62;;;;;;;9.84;37.82;101172.50;1723929;82;21039;-55
2023/05/10 00:10:16;;;;;;;4.47;1.57;;;;;;;9.86;37.83;101175.92;1723894;83;21118;-56
2023/05/10 00:12:45;;;;;;;2.45;1.62;;;;;;;9.90;37.65;101170.95;1723998;83;21047;-56
2023/05/10 00:15:14;;;;;;;4.08;1.92;;;;;;;9.91;37.47;101167.18;1723782;83;21074;-57
2023/05/10 00:17:43;;;;;;;3.42;1.40;;;;;;;9.92;37.36;101168.89;1723848;83;21046;-57
2023/05/10 00:20:12;;;;;;;3.85;1.65;;;;;;;9.94;37.46;101170.94;1724140;82;21083;-56
2023/05/10 00:22:42;;;;;;;4.17;2.00;;;;;;;9.96;37.52;101169.73;1724020;83;21031;-57
2023/05/10 00:25:12;;;;;;;4.30;1.92;;;;;;;9.99;37.22;101165.28;1723896;83;21078;-57
2023/05/10 00:27:41;;;;;;;4.33;1.70;;;;;;;10.00;37.08;101164.25;1724117;83;21070;-57
2023/05/10 00:30:10;;;;;;;3.25;1.60;;;;;;;10.02;37.19;101162.70;1723841;83;21062;-56
2023/05/10 00:32:40;;;;;;;3.35;1.90;;;;;;;10.01;37.10;101163.73;1723878;82;21094;-57
2023/05/10 00:35:09;;;;;;;4.12;1.72;;;;;;;10.00;36.98;101168.87;1724160;82;21510;-56
2023/05/10 00:37:40;;;;;;;7.75;2.08;;;;;;;9.98;36.97;101162.72;1723999;83;21051;-56
2023/05/10 00:40:10;;;;;;;4.83;1.70;;;;;;;9.97;37.08;101167.85;1723801;82;21063;-57
2023/05/10 00:42:44;;;;;;;6.22;1.80;;;;;;;9.98;37.30;101160.83;1723968;83;21043;-58
2023/05/10 00:45:13;;;;;;;3.08;1.50;;;;;;;10.00;37.48;101168.36;1724010;83;21082;-58
2023/05/10 00:47:42;;;;;;;5.40;1.90;;;;;;;9.98;37.54;101165.45;1723835;82;21055;-57
2023/05/10 00:50:14;;;;;;;4.22;1.80;;;;;;;9.95;37.65;101157.59;1723852;83;21102;-56
2023/05/10 00:52:43;;;;;;;3.62;1.60;;;;;;;9.93;37.42;101163.23;1723867;82;21470;-57
2023/05/10 00:55:12;;;;;;;2.98;1.60;;;;;;;9.95;37.51;101166.66;1724053;83;21114;-56
2023/05/10 00:57:41;;;;;;;3.52;1.72;;;;;;;9.94;37.55;101162.21;1723506;83;21130;-57
2023/05/10 01:00:11;;;;;;;10.23;2.00;;;;;;;9.96;37.57;101160.16;1701622;81;21494;-57
2023/05/10 01:02:42;;;;;;;3.05;1.57;;;;;;;9.97;37.98;101161.00;1723973;83;21086;-56
2023/05/10 01:05:12;;;;;;;4.37;1.62;;;;;;;9.95;37.88;101163.06;1723860;83;21079;-57
2023/05/10 01:07:41;;;;;;;5.45;2.02;;;;;;;9.90;38.07;101158.63;1723653;83;21110;-56
2023/05/10 01:10:11;;;;;;;2.77;1.80;;;;;;;9.87;38.04;101158.98;1723836;83;21555;-57
2023/05/10 01:12:41;;;;;;;4.58;1.70;;;;;;;9.86;37.93;101169.07;1723939;83;21508;-56
2023/05/10 01:15:10;;;;;;;5.60;1.92;;;;;;;9.85;37.98;101165.48;1701705;83;21110;-56
2023/05/10 01:17:40;;;;;;;3.60;1.80;;;;;;;9.87;37.91;101163.09;1723789;83;21118;-56
2023/05/10 01:20:10;;;;;;;3.62;1.92;;;;;;;9.90;38.09;101164.11;1723981;83;21071;-56
2023/05/10 01:23:30;;;;;;;4.90;2.20;;;;;;;9.92;37.91;101162.05;1723786;83;21019;-57
2023/05/10 01:26:26;;;;;;;3.60;1.60;;;;;;;9.93;37.73;101157.77;1723728;83;21094;-56
2023/05/10 01:29:20;;;;;;;3.72;1.60;;;;;;;9.94;37.71;101161.36;1723439;83;21043;-58
2023/05/10 01:32:16;;;;;;;4.42;1.67;;;;;;;9.92;37.98;101162.90;1723706;83;21044;-57
2023/05/10 01:35:02;;;;;;;2.87;1.95;;;;;;;9.91;38.30;101165.30;1723617;83;21072;-57
2023/05/10 01:37:48;;;;;;;3.72;1.60;;;;;;;9.93;38.20;101154.17;1689242;83;21078;-57
2023/05/10 01:40:25;;;;;;;4.62;1.65;;;;;;;9.94;38.21;101151.77;1723882;83;21038;-56
2023/05/10 01:43:01;;;;;;;5.85;1.90;;;;;;;9.92;38.29;101151.95;1677854;83;21066;-57
2023/05/10 01:45:41;;;;;;;4.00;1.87;;;;;;;9.94;38.36;101152.63;1723830;83;21074;-57
2023/05/10 01:48:11;;;;;;;6.03;2.27;;;;;;;9.92;38.20;101150.58;1717154;83;21142;-57
2023/05/10 01:50:43;;;;;;;6.15;2.35;;;;;;;9.92;38.40;101151.09;1723945;83;21465;-56
2023/05/10 01:53:12;;;;;;;4.15;1.80;;;;;;;9.91;38.44;101145.28;1724024;81;21094;-57
2023/05/10 01:55:52;;;;;;;6.08;1.90;;;;;;;9.89;38.31;101144.60;1723818;83;21121;-56
2023/05/10 01:58:30;;;;;;;3.52;1.80;;;;;;;9.85;38.38;101144.95;1722190;81;21519;-56
2023/05/10 02:01:02;;;;;;;4.30;1.70;;;;;;;9.85;38.40;101149.06;1705685;84;21190;-58
2023/05/10 02:03:31;;;;;;;3.35;1.82;;;;;;;9.84;38.59;101147.35;1705979;84;21071;-56
2023/05/10 02:05:59;;;;;;;4.70;2.15;;;;;;;9.84;38.74;101139.66;1705930;84;21031;-56
2023/05/10 02:08:29;;;;;;;6.08;3.37;;;;;;;9.81;38.83;101143.59;1705734;84;21040;-57
2023/05/10 02:10:58;;;;;;;5.90;2.58;;;;;;;9.80;39.13;101142.40;1705863;84;21063;-54
2023/05/10 02:13:29;;;;;;;3.40;2.27;;;;;;;9.78;39.23;101139.84;1705673;84;21039;-56
2023/05/10 02:15:58;;;;;;;8.68;2.33;;;;;;;9.77;39.38;101138.13;1706061;84;21047;-55
2023/05/10 02:18:26;;;;;;;6.70;2.17;;;;;;;9.72;39.64;101144.61;1705843;83;21047;-57
2023/05/10 02:20:57;;;;;;;4.15;1.90;;;;;;;9.68;39.72;101145.13;1705806;84;21035;-56
2023/05/10 02:23:26;;;;;;;3.00;1.85;;;;;;;9.64;39.98;101142.40;1705781;84;21400;-57
2023/05/10 02:25:55;;;;;;;5.72;2.27;;;;;;;9.63;40.02;101147.02;1705925;84;21052;-56
2023/05/10 02:28:24;;;;;;;5.35;2.40;;;;;;;9.58;40.23;101141.73;1705898;84;21099;-55
2023/05/10 02:30:52;;;;;;;6.08;1.95;;;;;;;9.53;40.48;101146.35;1706038;84;21047;-56
2023/05/10 02:33:22;;;;;;;7.60;2.60;;;;;;;9.49;40.54;101144.47;1705864;84;21123;-57
2023/05/10 02:35:51;;;;;;;4.75;2.12;;;;;;;9.48;40.71;101143.28;1705643;84;21213;-57
2023/05/10 02:38:21;;;;;;;5.12;2.22;;;;;;;9.44;40.85;101140.03;1705962;84;21056;-56
2023/05/10 02:40:51;;;;;;;4.12;2.10;;;;;;;9.42;41.06;101144.83;1705598;84;21106;-57
2023/05/10 02:43:20;;;;;;;10.30;3.10;;;;;;;9.39;41.14;101145.67;1705751;84;21059;-57
2023/05/10 02:45:49;;;;;;;3.60;2.00;;;;;;;9.36;41.37;101148.76;1684389;84;21048;-59
2023/05/10 02:48:18;;;;;;;6.40;2.65;;;;;;;9.33;41.04;101149.95;1705623;83;21052;-56
2023/05/10 02:50:51;;;;;;;5.55;2.20;;;;;;;9.30;40.92;101148.93;1706057;84;21092;-57
2023/05/10 02:53:23;;;;;;;3.55;1.85;;;;;;;9.28;41.09;101144.14;1705781;84;21044;-57
2023/05/10 02:55:52;;;;;;;8.05;2.45;;;;;;;9.29;41.00;101140.89;1705965;84;21039;-57
2023/05/10 02:58:21;;;;;;;5.35;1.80;;;;;;;9.30;40.89;101140.73;1683982;84;21123;-57
2023/05/10 03:00:50;;;;;;;7.08;2.40;;;;;;;9.33;41.01;101140.89;1678965;83;21110;-58
2023/05/10 03:03:20;;;;;;;4.22;2.10;;;;;;;9.35;40.95;101141.58;1724027;83;21110;-57
2023/05/10 03:05:55;;;;;;;8.93;2.10;;;;;;;9.35;40.80;101142.95;1723919;83;21023;-56
2023/05/10 03:08:23;;;;;;;3.42;2.08;;;;;;;9.36;41.02;101146.02;1723875;82;21454;-57
2023/05/10 03:11:26;;;;;;;7.78;2.55;;;;;;;9.36;41.71;101151.49;1723834;83;21061;-56
2023/05/10 03:14:14;;;;;;;9.33;3.02;;;;;;;9.34;42.10;101149.44;1701451;83;21494;-57
2023/05/10 03:16:49;;;;;;;7.87;3.98;;;;;;;9.32;41.97;101151.50;1724002;83;21023;-56
2023/05/10 03:19:50;;;;;;;10.28;4.05;;;;;;;9.31;41.86;101149.27;1723982;83;21039;-58
2023/05/10 03:22:26;;;;;;;8.53;3.17;;;;;;;9.34;41.92;101154.91;1698878;84;21075;-57
2023/05/10 03:24:57;;;;;;;7.80;2.95;;;;;;;9.34;42.00;101149.44;1719588;83;21071;-55
2023/05/10 03:27:27;;;;;;;11.18;3.22;;;;;;;9.36;41.84;101145.51;1701469;83;21506;-58
2023/05/10 03:29:56;;;;;;;7.37;2.65;;;;;;;9.37;42.29;101151.83;1723809;83;21050;-56
2023/05/10 03:32:27;;;;;;;4.47;2.52;;;;;;;9.37;42.94;101150.47;1723955;83;21082;-56
2023/05/10 03:34:56;;;;;;;7.17;2.80;;;;;;;9.38;42.78;101150.80;1724072;83;21011;-57
2023/05/10 03:37:26;;;;;;;7.20;2.40;;;;;;;9.40;43.01;101151.49;1723966;83;21129;-58
2023/05/10 03:39:55;;;;;;;6.40;2.42;;;;;;;9.38;43.19;101153.55;1724133;83;21090;-56
2023/05/10 03:42:24;;;;;;;6.47;3.00;;;;;;;9.37;43.08;101145.00;1723804;83;21465;-58
2023/05/10 03:44:54;;;;;;;7.65;2.95;;;;;;;9.41;42.66;101149.95;1723891;83;21019;-56
2023/05/10 03:47:22;;;;;;;5.25;2.30;;;;;;;9.42;42.57;101150.80;1724071;83;21102;-57
2023/05/10 03:49:51;;;;;;;3.75;2.45;;;;;;;9.42;42.27;101156.28;1724076;83;21109;-58
2023/05/10 03:52:20;;;;;;;4.90;2.20;;;;;;;9.43;41.97;101151.14;1701813;83;21066;-56
2023/05/10 03:54:49;;;;;;;10.78;3.00;;;;;;;9.44;42.18;101164.65;1724138;83;21450;-56
2023/05/10 03:57:18;;;;;;;7.30;2.52;;;;;;;9.47;42.83;101165.67;1723912;82;21497;-56
2023/05/10 03:59:46;;;;;;;5.05;2.27;;;;;;;9.49;43.22;101159.52;1716471;82;21067;-57
2023/05/10 04:02:15;;;;;;;5.67;2.55;;;;;;;9.51;43.13;101160.20;1705890;84;21043;-57
2023/05/10 04:04:44;;;;;;;5.15;2.20;;;;;;;9.53;43.18;101170.45;1705542;84;21443;-56
2023/05/10 04:07:13;;;;;;;5.58;2.60;;;;;;;9.56;43.56;101169.26;1705475;84;21459;-57
2023/05/10 04:09:42;;;;;;;9.53;3.17;;;;;;;9.59;43.67;101172.16;1705512;84;21071;-57
2023/05/10 04:12:11;;;;;;;8.88;2.77;;;;;;;9.62;43.69;101170.45;1705575;84;21115;-57
2023/05/10 04:14:40;;;;;;;6.85;2.80;;;;;;;9.65;43.74;101169.59;1705439;84;21044;-56
2023/05/10 04:17:10;;;;;;;8.08;2.50;;;;;;;9.70;43.46;101175.40;1705662;84;21051;-57
2023/05/10 04:19:39;;;;;;;7.10;2.30;;;;;;;9.76;43.12;101176.11;1705966;84;21182;-57
2023/05/10 04:22:09;;;;;;;3.35;2.08;;;;;;;9.84;42.99;101176.09;1705487;83;21037;-58
2023/05/10 04:24:39;;;;;;;6.15;2.50;;;;;;;9.91;42.29;101168.55;1705388;84;21051;-57
2023/05/10 04:27:09;;;;;;;7.12;2.22;;;;;;;9.96;41.70;101167.00;1705588;84;21483;-57
2023/05/10 04:29:39;;;;;;;5.70;2.10;;;;;;;9.99;41.81;101168.02;1705632;84;21095;-57
2023/05/10 04:32:11;;;;;;;6.05;2.47;;;;;;;10.08;41.87;101171.06;1705548;84;21079;-57
2023/05/10 04:34:40;;;;;;;6.75;2.37;;;;;;;10.18;41.87;101164.02;1705800;84;21052;-58
2023/05/10 04:37:10;;;;;;;6.25;2.30;;;;;;;10.28;41.28;101166.07;1705898;84;21088;-56
2023/05/10 04:39:39;;;;;;;7.75;2.50;;;;;;;10.34;40.94;101163.98;1705613;84;21136;-56
2023/05/10 04:42:11;;;;;;;6.87;2.02;;;;;;;10.41;41.10;101171.87;1705644;84;21095;-57
2023/05/10 04:44:40;;;;;;;6.92;2.00;;;;;;;10.45;40.87;101165.52;1705930;84;21055;-58
2023/05/10 04:47:09;;;;;;;4.33;2.27;;;;;;;10.45;40.78;101169.63;1705629;84;21123;-56
2023/05/10 04:49:40;;;;;;;7.47;2.05;;;;;;;10.41;40.93;101169.13;1705762;84;21171;-56
2023/05/10 04:52:09;;;;;;;11.53;4.05;;;;;;;10.37;41.13;101171.00;1705546;84;21129;-57
2023/05/10 04:54:38;;;;;;;9.25;2.95;;;;;;;10.35;41.09;101169.80;1705750;84;21447;-56
2023/05/10 04:57:08;;;;;;;8.48;2.95;;;;;;;10.35;41.19;101168.44;1705908;84;21051;-57
2023/05/10 04:59:37;;;;;;;5.55;2.27;;;;;;;10.33;41.11;101166.91;1705577;83;21031;-56
2023/05/10 05:02:08;;;;;;;8.15;2.62;;;;;;;10.29;41.34;101169.14;1705675;84;21055;-58
2023/05/10 05:04:38;;;;;;;5.92;2.42;;;;;;;10.26;41.17;101168.13;1705707;84;21016;-56
2023/05/10 05:07:06;;;;;;;8.88;2.62;;;;;;;10.26;41.20;101179.09;1705876;84;21083;-57
2023/05/10 05:09:36;;;;;;;9.85;2.30;;;;;;;10.30;41.33;101181.81;1705677;84;21083;-58
2023/05/10 05:12:05;;;;;;;5.75;2.33;;;;;;;10.36;41.26;101184.36;1705554;84;21067;-57
2023/05/10 05:14:34;;;;;;;6.42;2.42;;;;;;;10.45;41.13;101181.44;1705630;83;21651;-57
2023/05/10 05:17:03;;;;;;;5.55;2.10;;;;;;;10.56;40.97;101181.56;1705588;84;21035;-57
2023/05/10 05:19:32;;;;;;;9.30;2.60;;;;;;;10.65;40.86;101176.89;1625031;88;21022;-56
2023/05/10 05:22:01;;;;;;;4.40;2.30;;;;;;;10.71;40.91;101174.28;1625207;87;21125;-58
2023/05/10 05:24:34;;;;;;;15.95;2.98;;;;;;;10.71;41.08;101176.17;1625026;88;21191;-58
2023/05/10 05:27:03;;;;;;;5.67;2.52;;;;;;;10.80;41.25;101176.47;1604823;87;21042;-57
2023/05/10 05:29:32;;;;;;;7.00;2.87;;;;;;;10.95;41.23;101174.66;1625152;87;21344;-56
2023/05/10 05:32:01;;;;;;;9.63;2.62;;;;;;;11.08;41.08;101170.83;1624999;87;21493;-57
2023/05/10 05:34:30;;;;;;;6.30;2.58;;;;;;;11.19;40.39;101170.06;1625166;87;21051;-57
2023/05/10 05:36:59;;;;;;;4.50;2.30;;;;;;;11.24;39.89;101169.85;1642155;84;21055;-57
2023/05/10 05:39:28;;;;;;;7.25;2.62;;;;;;;11.27;39.40;101170.86;1705707;83;21091;-58
2023/05/10 05:41:56;;;;;;;5.05;2.30;;;;;;;11.28;39.35;101171.70;1705589;83;21051;-57
2023/05/10 05:44:27;;;;;;;6.55;2.30;;;;;;;11.32;39.62;101172.53;1706049;84;21044;-57
2023/05/10 05:46:56;;;;;;;7.25;2.30;;;;;;;11.37;40.32;101174.72;1705620;84;21083;-57
2023/05/10 05:49:27;;;;;;;5.70;2.35;;;;;;;11.43;40.33;101175.36;1705690;84;21067;-58
2023/05/10 05:52:02;;;;;;;5.78;2.50;;;;;;;11.48;40.24;101169.31;1705641;84;21048;-56
2023/05/10 05:54:31;;;;;;;6.45;2.37;;;;;;;11.47;40.01;101164.34;1705600;84;21063;-56
2023/05/10 05:57:01;;;;;;;5.87;3.27;;;;;;;11.52;40.05;101164.64;1705850;83;21098;-56
2023/05/10 05:59:30;;;;;;;9.68;3.30;;;;;;;11.56;40.09;101170.09;1705827;82;21047;-58
2023/05/10 06:01:59;;;;;;;6.75;2.87;;;;;;;11.58;40.20;101166.64;1713792;84;21039;-57
2023/05/10 06:04:28;;;;;;;9.15;2.70;;;;;;;11.61;40.07;101169.02;1713725;82;21126;-56
2023/05/10 06:06:58;;;;;;;5.03;3.05;;;;;;;11.63;40.39;101171.06;1714014;82;21526;-56
2023/05/10 06:09:27;;;;;;;8.15;2.87;;;;;;;11.69;40.41;101172.20;1713891;84;21070;-57
2023/05/10 06:11:57;;;;;;;3.60;2.55;;;;;;;11.79;40.67;101173.38;1714002;84;21086;-57
2023/05/10 06:14:25;;;;;;;5.60;2.62;;;;;;;11.88;40.89;101165.39;1713897;84;21170;-57
2023/05/10 06:16:55;;;;;;;5.87;2.80;;;;;;;12.02;40.89;101170.05;1713798;84;21079;-58
2023/05/10 06:19:26;;;;;;;11.33;3.42;;;;;;;12.13;41.64;101165.45;1713852;84;21071;-58
2023/05/10 06:21:55;;;;;;;7.50;2.87;;;;;;;12.22;41.69;101164.31;1713986;82;21082;-56
2023/05/10 06:24:24;;;;;;;10.30;3.00;;;;;;;12.37;41.65;101162.97;1713737;84;21067;-56
2023/05/10 06:26:52;;;;;;;6.72;2.60;;;;;;;12.56;41.37;101166.50;1713760;84;21070;-58
2023/05/10 06:29:22;;;;;;;6.78;2.60;;;;;;;12.79;40.89;101165.50;1713855;82;21043;-56
2023/05/10 06:31:50;;;;;;;5.67;2.35;;;;;;;13.05;40.20;101163.08;1713800;82;21055;-57
2023/05/10 06:34:20;;;;;;;5.10;2.80;;;;;;;13.38;39.25;101157.94;1713652;84;21039;-58
2023/05/10 06:36:49;;;;;;;5.90;2.72;;;;;;;13.76;38.78;101154.89;1714036;84;21078;-57
2023/05/10 06:39:18;;;;;;;5.20;2.52;;;;;;;14.17;38.12;101154.96;1713918;84;21011;-56
2023/05/10 06:41:46;;;;;;;8.48;3.02;;;;;;;14.61;37.03;101157.38;1713723;84;21114;-57
2023/05/10 06:44:15;;;;;;;5.37;2.72;;;;;;;14.99;35.64;101156.36;1713827;84;21115;-58
2023/05/10 06:46:44;;;;;;;6.40;2.65;;;;;;;15.20;35.05;101151.20;1713856;84;21039;-57
2023/05/10 06:49:13;;;;;;;6.22;2.75;;;;;;;15.46;34.98;101155.38;1713928;84;21055;-57
2023/05/10 06:51:42;;;;;;;5.90;2.37;;;;;;;15.79;34.07;101151.83;1713945;84;21105;-58
2023/05/10 06:54:11;;;;;;;6.72;2.80;;;;;;;15.99;33.39;101154.04;1713640;84;21063;-56
2023/05/10 06:56:40;;;;;;;7.70;3.17;;;;;;;16.21;32.73;101153.25;1713764;84;21019;-57
2023/05/10 06:59:09;;;;;;;6.40;2.92;;;;;;;16.50;32.22;101161.60;1713963;84;21067;-58
2023/05/10 07:01:39;;;;;;;7.17;3.10;;;;;;;16.86;31.74;101157.44;1720112;81;21078;-55
2023/05/10 07:04:08;;;;;;;4.72;2.37;;;;;;;16.89;30.74;101162.53;1721610;83;21075;-57
2023/05/10 07:06:37;;;;;;;5.10;2.45;;;;;;;16.71;30.99;101162.72;1721420;83;21035;-56
2023/05/10 07:09:07;;;;;;;4.78;2.45;;;;;;;16.54;30.70;101159.25;1721454;83;21011;-56
2023/05/10 07:11:37;;;;;;;4.35;2.52;;;;;;;16.47;30.85;101160.13;1721808;83;21042;-59
2023/05/10 07:14:06;;;;;;;6.60;2.75;;;;;;;16.52;31.22;101155.31;1721761;83;21062;-57
2023/05/10 07:16:36;;;;;;;4.65;2.45;;;;;;;16.63;31.13;101155.17;1721627;82;21083;-58
2023/05/10 07:19:05;;;;;;;7.33;2.60;;;;;;;16.71;30.87;101153.56;1721821;83;21567;-58
2023/05/10 07:21:35;;;;;;;4.67;2.60;;;;;;;16.74;30.42;101158.13;1721625;83;21074;-58
2023/05/10 07:24:06;;;;;;;7.78;2.85;;;;;;;17.03;30.07;101156.73;1699647;83;21458;-56
2023/05/10 07:26:35;;;;;;;4.85;2.25;;;;;;;17.40;29.36;101157.77;1721809;83;21070;-58
2023/05/10 07:29:05;;;;;;;6.78;2.00;;;;;;;17.65;28.74;101163.36;1721725;83;21078;-59
2023/05/10 07:31:37;;;;;;;5.33;2.37;;;;;;;17.52;27.72;101158.43;1721731;83;21520;-56
2023/05/10 07:34:06;;;;;;;9.75;4.83;;;;;;;17.44;28.06;101159.02;1721630;83;21509;-57
2023/05/10 07:36:37;;;;;;;8.05;3.40;;;;;;;17.46;27.89;101157.94;1721838;82;21042;-58
2023/05/10 07:39:05;;;;;;;3.87;2.60;;;;;;;17.44;28.18;101160.40;1721566;82;21043;-56
2023/05/10 07:41:34;;;;;;;3.55;2.08;;;;;;;17.55;27.60;101157.98;1721555;83;21340;-56
2023/05/10 07:44:05;;;;;;;4.72;2.20;;;;;;;17.64;27.12;101158.05;1721763;82;21019;-57
2023/05/10 07:46:34;;;;;;;4.22;2.02;;;;;;;17.41;27.53;101147.00;1721693;83;21018;-57
2023/05/10 07:49:03;;;;;;;6.25;2.25;;;;;;;17.43;27.75;101146.23;1731134;81;21044;-58
2023/05/10 07:51:37;;;;;;;4.67;2.10;;;;;;;17.79;27.48;101153.04;1722115;82;21134;-59
2023/05/10 07:54:11;;;;;;;8.28;2.25;;;;;;;18.24;26.47;101148.67;1705833;81;21043;-60
2023/05/10 07:56:48;;;;;;;8.18;2.35;;;;;;;18.43;26.03;101138.44;1721520;83;21472;-59
2023/05/10 07:59:17;;;;;;;27.70;6.12;;;;;;;18.54;26.13;101142.67;1715173;82;21032;-58
2023/05/10 08:01:47;;;;;;;5.50;2.60;;;;;;;18.78;26.02;101150.62;1693578;83;21092;-57
2023/05/10 08:04:17;;;;;;;5.15;2.60;;;;;;;19.12;25.46;101141.31;1678247;84;21084;-58
2023/05/10 08:06:50;;;;;;;4.80;2.50;;;;;;;19.24;25.51;101137.49;1689437;84;21072;-58
2023/05/10 08:09:23;;;;;;;10.25;2.45;;;;;;;19.53;25.01;101133.58;1701757;84;21036;-57
2023/05/10 08:11:53;;;;;;;4.55;2.40;;;;;;;19.72;24.68;101125.44;1701840;84;21071;-60
2023/05/10 08:14:23;;;;;;;2.95;2.20;;;;;;;19.46;25.04;101132.23;1701881;83;21086;-56
2023/05/10 08:16:51;;;;;;;4.20;2.37;;;;;;;19.07;24.74;101139.79;1701844;84;21519;-58
2023/05/10 08:19:21;;;;;;;6.45;2.80;;;;;;;18.48;25.33;101144.98;1702000;83;21116;-59
2023/05/10 08:21:50;;;;;;;10.98;3.17;;;;;;;17.98;25.84;101138.67;1701745;84;21092;-58
2023/05/10 08:24:20;;;;;;;6.40;2.55;;;;;;;17.67;26.25;101139.61;1697394;83;21085;-58
2023/05/10 08:26:49;;;;;;;4.40;2.20;;;;;;;17.41;26.32;101138.69;1689433;84;21010;-60
2023/05/10 08:29:18;;;;;;;3.35;2.00;;;;;;;17.14;26.23;101130.25;1689897;85;21362;-57
2023/05/10 08:31:46;;;;;;;8.58;2.72;;;;;;;16.91;26.51;101131.36;1689516;83;21109;-58
2023/05/10 08:34:15;;;;;;;5.62;2.20;;;;;;;16.73;26.76;101132.91;1689309;85;21120;-57
2023/05/10 08:36:44;;;;;;;4.45;1.98;;;;;;;16.50;27.14;101131.17;1689413;83;21092;-57
2023/05/10 08:39:13;;;;;;;3.67;1.77;;;;;;;16.27;27.20;101141.89;1689357;85;21093;-56
2023/05/10 08:41:44;;;;;;;6.37;2.40;;;;;;;15.95;27.05;101136.72;1688399;83;21034;-57
2023/05/10 08:44:13;;;;;;;3.98;1.92;;;;;;;15.73;27.62;101134.19;1689374;85;21065;-56
2023/05/10 08:46:43;;;;;;;2.83;1.80;;;;;;;15.63;27.97;101142.59;1688914;83;21033;-57
2023/05/10 08:49:18;;;;;;;6.17;2.30;;;;;;;15.56;28.12;101139.77;1689372;85;21128;-59
2023/05/10 08:51:51;;;;;;;4.17;1.90;;;;;;;15.54;28.46;101136.37;1689487;85;21092;-58
2023/05/10 08:54:21;;;;;;;2.45;1.90;;;;;;;15.58;28.65;101139.05;1689252;85;21089;-58
2023/05/10 08:56:50;;;;;;;6.28;2.08;;;;;;;15.56;28.82;101143.91;1678019;85;21037;-59
2023/05/10 08:59:19;;;;;;;5.33;2.08;;;;;;;15.55;28.89;101128.40;1698007;84;21072;-57
2023/05/10 09:01:49;;;;;;;3.70;1.70;;;;;;;15.59;29.11;101126.95;1701805;84;21131;-57
2023/05/10 09:04:19;;;;;;;7.42;2.55;;;;;;;15.62;29.11;101121.03;1701875;84;21025;-60
2023/05/10 09:06:49;;;;;;;3.87;1.70;;;;;;;15.61;29.25;101124.85;1680404;84;21064;-58
2023/05/10 09:09:18;;;;;;;5.58;1.62;;;;;;;15.65;29.43;101130.27;1701774;83;21012;-60
2023/05/10 09:11:47;;;;;;;2.83;1.47;;;;;;;15.67;29.20;101125.91;1701837;84;20992;-58
2023/05/10 09:14:15;;;;;;;2.98;1.75;;;;;;;15.69;29.11;101129.31;1701657;83;21467;-56
2023/05/10 09:16:44;;;;;;;2.98;1.70;;;;;;;15.69;29.12;101125.16;1701687;84;21644;-60
2023/05/10 09:19:13;;;;;;;3.17;1.50;;;;;;;15.72;29.06;101121.97;1701932;83;21514;-58
2023/05/10 09:21:43;;;;;;;6.28;2.15;;;;;;;15.71;28.92;101123.89;1680335;84;21570;-58
2023/05/10 09:24:12;;;;;;;4.95;2.10;;;;;;;15.69;28.97;101120.48;1658206;84;21068;-59
2023/05/10 09:26:51;;;;;;;4.05;1.80;;;;;;;15.67;29.13;101116.23;1701618;84;21052;-57
2023/05/10 09:29:20;;;;;;;2.70;1.40;;;;;;;15.65;28.89;101119.22;1701820;84;21155;-58
2023/05/10 09:31:51;;;;;;;3.35;1.72;;;;;;;15.58;28.91;101114.72;1701694;84;21087;-57
2023/05/10 09:34:30;;;;;;;7.62;2.17;;;;;;;15.52;29.24;101111.72;1701451;84;21032;-59
2023/05/10 09:37:01;;;;;;;3.75;2.75;;;;;;;15.52;29.38;101104.81;1701767;84;21040;-60
2023/05/10 09:39:33;;;;;;;4.05;2.17;;;;;;;15.63;29.41;101109.44;1701891;84;21087;-57
2023/05/10 09:42:08;;;;;;;4.22;1.90;;;;;;;15.70;29.27;101115.28;1701662;84;21080;-57
2023/05/10 09:44:38;;;;;;;4.50;1.90;;;;;;;15.75;29.12;101114.64;1701550;84;21044;-57
2023/05/10 09:47:06;;;;;;;4.22;1.82;;;;;;;15.75;28.98;101106.34;1701447;84;21068;-58
2023/05/10 09:49:35;;;;;;;10.05;3.47;;;;;;;15.78;28.42;101102.63;1701522;83;21564;-58
2023/05/10 09:52:07;;;;;;;6.47;2.10;;;;;;;15.84;28.41;101102.30;1701342;84;21056;-58
2023/05/10 09:54:36;;;;;;;3.85;1.70;;;;;;;15.86;28.69;101111.22;1701347;84;21005;-57
2023/05/10 09:57:05;;;;;;;6.70;2.40;;;;;;;15.86;28.10;101109.84;1701526;84;21063;-59
2023/05/10 09:59:42;;;;;;;4.53;1.80;;;;;;;15.78;28.16;101105.92;1701563;83;21063;-58
2023/05/10 10:02:11;;;;;;;4.00;1.98;;;;;;;15.68;28.10;101111.88;1680652;84;21056;-58
2023/05/10 10:04:43;;;;;;;7.67;2.50;;;;;;;15.57;28.25;101106.94;1701641;83;21064;-58
2023/05/10 10:07:12;;;;;;;6.35;1.60;;;;;;;15.54;28.53;101105.45;1701731;84;21099;-58
2023/05/10 10:09:40;;;;;;;4.60;2.02;;;;;;;15.47;28.59;101101.84;1701689;84;21496;-57
2023/05/10 10:12:09;;;;;;;6.58;2.20;;;;;;;15.43;28.70;101105.24;1701771;84;21071;-58
2023/05/10 10:14:38;;;;;;;6.65;2.67;;;;;;;15.42;28.99;101108.53;1701860;83;21456;-56
2023/05/10 10:17:07;;;;;;;7.20;2.17;;;;;;;15.44;29.00;101098.13;1701874;84;21063;-57
2023/05/10 10:19:37;;;;;;;6.80;2.25;;;;;;;15.44;28.99;101107.79;1701701;84;21029;-58
2023/05/10 10:22:06;;;;;;;10.40;3.00;;;;;;;15.42;28.99;101103.01;1701744;84;21016;-60
2023/05/10 10:24:36;;;;;;;3.35;1.65;;;;;;;15.41;29.07;101105.45;1701627;84;21479;-58
2023/05/10 10:27:42;;;;;;;6.42;2.20;;;;;;;15.38;29.02;101103.64;1701575;83;21020;-57
2023/05/10 10:30:37;;;;;;;6.62;2.33;;;;;;;15.33;29.11;101104.28;1661388;84;21071;-59
2023/05/10 10:33:48;;;;;;;5.00;1.87;;;;;;;15.31;29.04;101098.66;1701569;84;20996;-57
2023/05/10 10:36:18;;;;;;;5.05;1.82;;;;;;;15.30;28.97;101097.80;1701811;84;21040;-58
2023/05/10 10:38:59;;;;;;;4.87;2.30;;;;;;;15.34;28.76;101099.08;1701923;84;21115;-56
2023/05/10 10:41:52;;;;;;;6.28;1.82;;;;;;;15.37;28.65;101089.52;1701780;84;21123;-57
2023/05/10 10:44:29;;;;;;;2.55;1.50;;;;;;;15.37;28.38;101094.52;1701624;83;21502;-57
2023/05/10 10:47:18;;;;;;;6.15;2.50;;;;;;;15.41;28.57;101090.27;1701312;84;21013;-58
2023/05/10 10:50:00;;;;;;;;;;;;;;;15.45;28.44;101094.30;1704108;84;21111;-57
2023/05/10 10:52:39;;;;;;;3.83;2.00;;;;;;;15.44;28.32;101092.60;1700740;83;20209;-60
2023/05/10 10:55:22;;;;;;;3.90;1.70;;;;;;;15.43;28.81;101095.58;1700517;84;21091;-57
2023/05/10 10:57:54;;;;;;;3.95;1.85;;;;;;;15.34;29.26;101086.66;1697560;84;21310;-56
2023/05/10 11:00:36;;;;;;;3.12;1.85;;;;;;;15.24;29.57;101082.09;1660403;85;21066;-58
2023/05/10 11:03:14;;;;;;;4.55;1.77;;;;;;;15.18;30.02;101092.06;1698733;84;21084;-57
2023/05/10 11:05:49;;;;;;;6.08;2.00;;;;;;;15.07;30.46;101082.18;1704408;83;21073;-59
2023/05/10 11:08:22;;;;;;;4.03;1.75;;;;;;;15.01;30.70;101091.30;1703290;83;21065;-58
2023/05/10 11:10:54;;;;;;;4.12;2.30;;;;;;;14.94;30.72;101085.73;1694131;83;21477;-56
2023/05/10 11:13:43;;;;;;;5.83;2.22;;;;;;;14.88;30.91;101087.95;1695971;84;21136;-59
2023/05/10 11:16:18;;;;;;;3.42;1.82;;;;;;;14.82;31.00;101086.88;1659118;86;21147;-56
2023/05/10 11:19:03;;;;;;;4.25;1.82;;;;;;;14.80;30.79;101093.14;1659059;86;21079;-58
2023/05/10 11:21:34;;;;;;;6.30;2.15;;;;;;;14.83;30.45;101086.35;1658372;85;21508;-60
2023/05/10 11:24:06;;;;;;;5.15;2.17;;;;;;;14.87;30.50;101089.86;1656476;86;21055;-56
2023/05/10 11:26:35;;;;;;;3.58;1.80;;;;;;;14.90;30.22;101089.98;1658776;85;21057;-55
2023/05/10 11:29:05;;;;;;;5.67;2.20;;;;;;;14.97;29.90;101084.50;1673764;86;21029;-57
2023/05/10 11:31:34;;;;;;;4.20;2.05;;;;;;;15.03;29.52;101075.38;1658909;85;21094;-57
2023/05/10 11:34:04;;;;;;;3.55;2.00;;;;;;;15.07;29.64;101079.42;1685989;83;21595;-59
2023/05/10 11:36:34;;;;;;;9.93;2.47;;;;;;;15.14;29.39;101076.13;1685727;84;21067;-56
2023/05/10 11:39:04;;;;;;;3.05;1.90;;;;;;;15.21;29.64;101068.17;1683861;85;21075;-56
2023/05/10 11:41:34;;;;;;;3.05;1.72;;;;;;;15.34;29.32;101067.33;1658854;86;21180;-58
2023/05/10 11:44:06;;;;;;;3.92;1.82;;;;;;;15.44;28.99;101071.89;1657120;86;21071;-57
2023/05/10 11:46:35;;;;;;;3.92;2.10;;;;;;;15.53;28.42;101065.08;1656918;86;21082;-58
2023/05/10 11:49:06;;;;;;;6.22;1.92;;;;;;;15.52;28.29;101060.62;1598374;86;21498;-57